Time;durP1;ratioP1;P1;durP2;ratioP2;P2;SDS_P1;SDS_P2;PMS_P1;PMS_P2;Temp;Humidity;BMP_temperature;BMP_pressure;BME280_temperature;BME280_humidity;BME280_pressure;Samples;Min_cycle;Max_cycle;Signal;HPM_P1;HPM_P2
2024/01/09 00:00:51;;;;;;;15.50;8.23;;;-4.80;24.00;;;;;;4973201;28;20416;-70
2024/01/09 00:03:16;;;;;;;12.60;8.90;;;-4.90;18.10;;;;;;4973011;28;20256;-69
2024/01/09 00:05:42;;;;;;;16.60;10.40;;;;;;;;;;4973166;28;20256;-70
2024/01/09 00:08:08;;;;;;;17.60;11.68;;;;;;;;;;4972845;28;20200;-69
2024/01/09 00:10:34;;;;;;;14.63;9.93;;;;;;;;;;4973068;28;20177;-69
2024/01/09 00:13:00;;;;;;;12.38;9.43;;;;;;;;;;4972705;28;20480;-69
2024/01/09 00:15:26;;;;;;;14.63;9.38;;;;;;;;;;4972978;28;20177;-69
2024/01/09 00:17:52;;;;;;;13.70;10.53;;;-5.10;28.80;;;;;;4971947;28;20216;-70
2024/01/09 00:20:18;;;;;;;15.50;10.23;;;-5.00;21.40;;;;;;4972777;28;20750;-70
2024/01/09 00:22:43;;;;;;;18.87;10.40;;;-5.00;22.40;;;;;;4972601;28;20185;-69
2024/01/09 00:25:09;;;;;;;15.00;9.70;;;-5.00;25.10;;;;;;4972829;28;20781;-70
2024/01/09 00:27:35;;;;;;;15.70;10.43;;;;;;;;;;4971600;28;20205;-69
2024/01/09 00:30:02;;;;;;;17.58;10.35;;;;;;;;;;4971415;28;20261;-70
2024/01/09 00:32:28;;;;;;;10.05;7.60;;;;;;;;;;4972593;28;20597;-70
2024/01/09 00:34:54;;;;;;;15.80;10.57;;;;;;;;;;4972861;28;20176;-70
2024/01/09 00:37:20;;;;;;;15.00;9.40;;;;;;;;;;4972589;28;20669;-70
2024/01/09 00:39:46;;;;;;;18.20;10.47;;;;;;;;;;4972673;28;20932;-70
2024/01/09 00:42:12;;;;;;;16.23;10.30;;;;;;;;;;4972392;28;20479;-70
2024/01/09 00:44:41;;;;;;;13.00;11.00;;;;;;;;;;4972607;28;20463;-70
2024/01/09 00:47:06;;;;;;;15.15;9.02;;;-5.10;26.10;;;;;;4972516;28;20429;-70
2024/01/09 00:49:32;;;;;;;15.00;9.27;;;;;;;;;;4972605;28;20227;-70
2024/01/09 00:51:58;;;;;;;15.00;9.98;;;;;;;;;;4972391;28;20174;-70
2024/01/09 00:54:24;;;;;;;16.67;11.63;;;;;;;;;;4972624;28;20174;-70
2024/01/09 00:56:50;;;;;;;11.18;9.25;;;;;;;;;;4972534;28;20204;-70
2024/01/09 00:59:16;;;;;;;16.00;10.60;;;-5.30;28.20;;;;;;4972615;28;20181;-70
2024/01/09 01:01:42;;;;;;;16.43;10.90;;;;;;;;;;4972652;28;20421;-70
2024/01/09 01:04:08;;;;;;;12.00;9.17;;;;;;;;;;4972586;28;20201;-70
2024/01/09 01:06:41;;;;;;;14.73;11.67;;;-5.40;25.20;;;;;;4972806;28;20435;-70
2024/01/09 01:09:07;;;;;;;18.45;9.60;;;;;;;;;;4973420;28;20419;-71
2024/01/09 01:11:33;;;;;;;17.10;11.10;;;;;;;;;;4972357;28;20178;-70
2024/01/09 01:13:58;;;;;;;15.90;10.40;;;;;;;;;;4973227;28;20468;-70
2024/01/09 01:16:24;;;;;;;12.50;10.40;;;;;;;;;;4972712;28;20431;-70
2024/01/09 01:18:50;;;;;;;15.13;9.50;;;;;;;;;;4972937;23;20504;-69
2024/01/09 01:21:16;;;;;;;19.70;10.00;;;;;;;;;;4959074;29;20843;-68
2024/01/09 01:23:43;;;;;;;14.37;9.47;;;;;;;;;;4971714;28;20473;-68
2024/01/09 01:26:09;;;;;;;16.95;9.70;;;;;;;;;;4958036;29;20428;-69
2024/01/09 01:28:35;;;;;;;12.20;9.57;;;;;;;;;;4974370;28;20252;-70
2024/01/09 01:31:01;;;;;;;17.60;10.55;;;;;;;;;;4975577;28;20197;-69
2024/01/09 01:33:27;;;;;;;14.37;9.60;;;;;;;;;;4972334;28;20649;-69
2024/01/09 01:35:53;;;;;;;12.88;9.10;;;;;;;;;;4958161;29;20421;-69
2024/01/09 01:38:19;;;;;;;15.13;10.47;;;;;;;;;;4972342;28;20205;-69
2024/01/09 01:40:44;;;;;;;13.68;9.55;;;;;;;;;;4973090;28;20421;-69
2024/01/09 01:43:10;;;;;;;13.83;9.80;;;;;;;;;;4958028;29;20202;-70
2024/01/09 01:45:36;;;;;;;15.48;10.32;;;;;;;;;;4972816;28;20413;-69
2024/01/09 01:48:03;;;;;;;16.75;8.75;;;-5.40;24.10;;;;;;4957048;28;20659;-70
2024/01/09 01:50:31;;;;;;;14.02;8.40;;;-5.40;24.40;;;;;;4957903;28;20178;-69
2024/01/09 01:52:58;;;;;;;15.20;10.38;;;;;;;;;;4959503;28;20213;-69
2024/01/09 01:55:27;;;;;;;17.02;9.00;;;;;;;;;;4959385;29;20245;-69
2024/01/09 01:57:54;;;;;;;14.00;9.95;;;-5.50;22.10;;;;;;4959109;28;20713;-69
2024/01/09 02:00:21;;;;;;;13.27;8.93;;;-5.50;22.80;;;;;;4958422;28;20188;-70
2024/01/09 02:02:52;;;;;;;14.40;9.20;;;-5.60;21.90;;;;;;4972741;28;20182;-70
2024/01/09 02:05:18;;;;;;;11.02;8.68;;;-5.60;22.20;;;;;;4957865;28;20676;-70
2024/01/09 02:07:49;;;;;;;12.85;9.18;;;;;;;;;;4956857;28;20667;-69
2024/01/09 02:10:16;;;;;;;15.93;9.07;;;-5.60;21.20;;;;;;4957030;29;20233;-69
2024/01/09 02:12:42;;;;;;;10.10;8.82;;;;;;;;;;4957030;28;20177;-70
2024/01/09 02:15:08;;;;;;;19.70;10.77;;;;;;;;;;4956782;29;20220;-69
2024/01/09 02:17:38;;;;;;;15.32;9.40;;;;;;;;;;4956500;28;20244;-69
2024/01/09 02:20:08;;;;;;;15.05;9.25;;;-5.70;20.80;;;;;;4971800;28;20561;-71
2024/01/09 02:22:34;;;;;;;15.93;11.15;;;;;;;;;;4955276;29;20178;-69
2024/01/09 02:25:00;;;;;;;13.13;8.93;;;;;;;;;;4956237;28;20436;-71
2024/01/09 02:27:45;;;;;;;13.80;9.55;;;;;;;;;;4956807;28;20205;-69
2024/01/09 02:30:11;;;;;;;15.27;8.63;;;-5.70;10.70;;;;;;4956888;29;20628;-70
2024/01/09 02:32:37;;;;;;;13.02;10.18;;;-5.80;7.40;;;;;;4955411;29;20182;-69
2024/01/09 02:35:03;;;;;;;13.00;8.50;;;-5.80;7.60;;;;;;4957059;28;20170;-69
2024/01/09 02:37:29;;;;;;;12.10;8.67;;;-5.80;8.20;;;;;;4958341;28;20208;-70
2024/01/09 02:40:00;;;;;;;14.43;8.30;;;-5.80;11.90;;;;;;4956114;28;20178;-70
2024/01/09 02:42:26;;;;;;;13.75;8.32;;;-5.80;9.80;;;;;;4956575;28;20174;-70
2024/01/09 02:44:54;;;;;;;10.85;7.80;;;-5.80;10.60;;;;;;4956748;28;20228;-70
2024/01/09 02:47:22;;;;;;;22.35;9.77;;;-5.80;9.60;;;;;;4971638;28;20208;-70
2024/01/09 02:49:48;;;;;;;14.85;8.57;;;;;;;;;;4956313;28;20193;-69
2024/01/09 02:52:15;;;;;;;14.65;9.10;;;-5.60;15.20;;;;;;4955987;29;20174;-71
2024/01/09 02:54:41;;;;;;;16.92;9.15;;;-5.80;7.90;;;;;;4956313;28;20542;-69
2024/01/09 02:57:07;;;;;;;13.80;7.90;;;-5.80;8.00;;;;;;4956378;28;20208;-70
2024/01/09 02:59:32;;;;;;;20.73;9.80;;;-5.80;7.20;;;;;;4955788;28;20182;-68
2024/01/09 03:01:58;;;;;;;12.77;8.10;;;-5.80;7.00;;;;;;4956337;28;20543;-67
2024/01/09 03:04:23;;;;;;;11.60;8.20;;;-5.90;6.60;;;;;;4956938;28;20581;-68
2024/01/09 03:06:49;;;;;;;13.63;8.80;;;-5.90;7.70;;;;;;4956172;28;20173;-68
2024/01/09 03:09:16;;;;;;;15.50;10.33;;;-5.90;8.20;;;;;;4956191;28;20173;-67
2024/01/09 03:11:42;;;;;;;12.48;8.30;;;-5.90;10.10;;;;;;4955069;29;20182;-69
2024/01/09 03:14:07;;;;;;;15.67;9.23;;;-5.90;4.30;;;;;;4956378;28;20192;-69
2024/01/09 03:16:33;;;;;;;14.33;9.30;;;-6.00;4.60;;;;;;4956383;28;20716;-68
2024/01/09 03:18:58;;;;;;;13.53;8.70;;;-6.00;4.00;;;;;;4957492;28;20256;-68
2024/01/09 03:21:24;;;;;;;16.80;9.17;;;-6.00;4.60;;;;;;4958239;28;20196;-68
2024/01/09 03:23:49;;;;;;;16.33;9.00;;;-6.00;4.60;;;;;;4957705;28;20228;-69
2024/01/09 03:26:15;;;;;;;17.00;8.47;;;-6.00;6.20;;;;;;4974493;28;20178;-69
2024/01/09 03:28:40;;;;;;;15.40;8.57;;;-5.90;6.80;;;;;;4961967;28;20546;-68
2024/01/09 03:31:06;;;;;;;14.37;8.10;;;-6.00;8.00;;;;;;4960438;29;20278;-69
2024/01/09 03:33:32;;;;;;;17.67;9.23;;;-6.10;13.80;;;;;;4959653;29;20186;-69
2024/01/09 03:35:59;;;;;;;15.80;10.00;;;-6.10;11.90;;;;;;4960542;28;20197;-68
2024/01/09 03:38:24;;;;;;;11.80;8.20;;;-6.10;12.10;;;;;;4957537;28;20225;-68
2024/01/09 03:40:50;;;;;;;15.70;9.10;;;-6.10;14.00;;;;;;4959169;28;20202;-69
2024/01/09 03:43:16;;;;;;;12.43;8.63;;;-6.10;13.50;;;;;;4958974;28;20214;-68
2024/01/09 03:45:41;;;;;;;15.20;8.43;;;-6.00;16.80;;;;;;4958437;28;20456;-68
2024/01/09 03:48:09;;;;;;;16.27;8.63;;;-6.10;15.40;;;;;;4956787;28;20201;-70
2024/01/09 03:50:35;;;;;;;14.57;9.02;;;;;;;;;;4956491;28;20193;-69
2024/01/09 03:53:01;;;;;;;15.38;8.45;;;-6.10;4.60;;;;;;4957125;29;20174;-68
2024/01/09 03:55:26;;;;;;;15.00;8.70;;;-6.20;4.50;;;;;;4957109;28;20645;-69
2024/01/09 03:57:52;;;;;;;15.93;8.60;;;-6.10;4.30;;;;;;4955910;28;20227;-69
2024/01/09 04:00:17;;;;;;;16.63;9.80;;;-6.20;4.50;;;;;;4955731;28;20182;-69
2024/01/09 04:02:44;;;;;;;18.90;10.77;;;-6.20;3.50;;;;;;4955839;28;20181;-69
2024/01/09 04:05:09;;;;;;;18.00;12.05;;;-6.20;3.30;;;;;;4956283;28;20241;-69
2024/01/09 04:07:35;;;;;;;16.03;9.10;;;-6.20;3.70;;;;;;4956582;28;20202;-68
2024/01/09 04:10:01;;;;;;;16.52;10.70;;;-6.20;4.30;;;;;;4958742;28;20528;-68
2024/01/09 04:12:26;;;;;;;14.50;9.70;;;-6.20;4.40;;;;;;4959426;28;20183;-69
2024/01/09 04:14:52;;;;;;;14.50;9.90;;;-6.20;4.40;;;;;;4959703;28;20723;-68
2024/01/09 04:17:17;;;;;;;14.17;8.80;;;-6.20;5.00;;;;;;4958073;28;20763;-69
2024/01/09 04:19:43;;;;;;;14.40;9.30;;;-6.20;5.20;;;;;;4956350;28;20696;-69
2024/01/09 04:22:09;;;;;;;18.10;9.80;;;;;;;;;;4956380;28;20634;-69
2024/01/09 04:24:35;;;;;;;15.93;9.23;;;-6.30;1.00;;;;;;4970991;28;20316;-70
2024/01/09 04:27:04;;;;;;;12.83;8.00;;;-6.30;1.00;;;;;;4956378;28;20228;-69
2024/01/09 04:29:29;;;;;;;18.17;12.00;;;-6.30;1.00;;;;;;4956036;28;20210;-69
2024/01/09 04:31:55;;;;;;;12.40;9.57;;;-6.40;1.00;;;;;;4956535;28;20177;-69
2024/01/09 04:34:21;;;;;;;16.67;9.90;;;-6.40;1.00;;;;;;4954791;29;20182;-69
2024/01/09 04:36:46;;;;;;;15.93;10.37;;;-6.40;1.00;;;;;;4956133;28;20261;-68
2024/01/09 04:39:12;;;;;;;24.80;10.80;;;-6.40;1.00;;;;;;4956409;28;20178;-67
2024/01/09 04:41:37;;;;;;;12.07;7.60;;;-6.40;1.00;;;;;;4955543;28;20178;-67
2024/01/09 04:44:03;;;;;;;15.70;9.37;;;-6.40;1.00;;;;;;4957836;28;20236;-68
2024/01/09 04:46:29;;;;;;;16.13;9.77;;;-6.40;1.00;;;;;;4957275;28;20178;-68
2024/01/09 04:48:55;;;;;;;13.87;9.20;;;-6.40;1.00;;;;;;4955296;28;20496;-68
2024/01/09 04:51:20;;;;;;;19.17;10.15;;;-6.40;1.00;;;;;;4955670;28;20174;-68
2024/01/09 04:53:46;;;;;;;15.87;10.37;;;-6.40;1.00;;;;;;4970566;28;20244;-68
2024/01/09 04:56:12;;;;;;;15.47;9.53;;;-6.40;1.00;;;;;;4955781;28;20181;-68
2024/01/09 04:58:37;;;;;;;13.00;8.53;;;-6.40;1.00;;;;;;4955214;28;20198;-68
2024/01/09 05:01:03;;;;;;;15.13;9.87;;;-6.40;1.00;;;;;;4955650;28;20209;-68
2024/01/09 05:03:28;;;;;;;13.80;9.87;;;-6.40;1.00;;;;;;4957421;28;20197;-69
2024/01/09 05:05:54;;;;;;;16.13;9.20;;;-6.40;1.00;;;;;;4958945;28;20178;-68
2024/01/09 05:08:20;;;;;;;16.37;9.37;;;-6.40;1.00;;;;;;4958831;28;20198;-69
2024/01/09 05:10:45;;;;;;;15.13;9.73;;;-6.30;1.00;;;;;;4959318;28;20629;-68
2024/01/09 05:13:11;;;;;;;16.17;9.83;;;-6.30;1.00;;;;;;4958791;28;20217;-69
2024/01/09 05:15:36;;;;;;;19.80;9.87;;;-6.20;1.00;;;;;;4959407;28;20185;-69
2024/01/09 05:18:02;;;;;;;16.03;10.23;;;-6.20;1.00;;;;;;4960229;28;20222;-68
2024/01/09 05:20:28;;;;;;;13.13;10.20;;;-6.20;1.00;;;;;;4959703;29;20208;-67
2024/01/09 05:22:54;;;;;;;14.43;8.83;;;-6.20;1.00;;;;;;4960355;28;20449;-69
2024/01/09 05:25:20;;;;;;;15.70;10.73;;;-6.10;1.00;;;;;;4961343;28;20220;-69
2024/01/09 05:27:46;;;;;;;16.87;10.53;;;-6.00;1.00;;;;;;4960818;28;20194;-69
2024/01/09 05:30:12;;;;;;;20.33;11.47;;;-5.90;1.00;;;;;;4958800;28;20189;-68
2024/01/09 05:32:37;;;;;;;16.33;10.23;;;-5.80;1.00;;;;;;4957143;29;20182;-69
2024/01/09 05:35:03;;;;;;;20.47;11.40;;;-5.80;1.00;;;;;;4959536;28;20422;-68
2024/01/09 05:37:29;;;;;;;14.33;9.97;;;-5.70;1.00;;;;;;4958754;28;20205;-68
2024/01/09 05:39:54;;;;;;;15.60;10.47;;;-5.60;1.00;;;;;;4957686;29;20460;-68
2024/01/09 05:42:20;;;;;;;24.70;11.70;;;-5.50;1.00;;;;;;4958449;28;20209;-68
2024/01/09 05:44:46;;;;;;;17.60;12.37;;;-5.30;1.00;;;;;;4959445;28;20205;-68
2024/01/09 05:47:11;;;;;;;22.13;9.10;;;-5.20;1.00;;;;;;4959164;28;20448;-68
2024/01/09 05:49:37;;;;;;;18.80;11.47;;;-5.00;1.00;;;;;;4960013;28;20696;-69
2024/01/09 05:52:03;;;;;;;16.47;10.10;;;-5.00;1.00;;;;;;4959415;28;20185;-69
2024/01/09 05:54:28;;;;;;;18.23;10.90;;;-5.00;1.00;;;;;;4960154;28;20585;-69
2024/01/09 05:56:54;;;;;;;18.87;12.33;;;-4.80;1.00;;;;;;4959202;28;20220;-68
2024/01/09 05:59:19;;;;;;;16.90;9.57;;;-4.80;1.00;;;;;;4957509;28;20380;-68
2024/01/09 06:01:45;;;;;;;14.40;10.33;;;-4.80;1.00;;;;;;4956195;28;20663;-68
2024/01/09 06:04:11;;;;;;;17.20;9.73;;;-4.70;1.00;;;;;;4956356;28;20563;-68
2024/01/09 06:06:36;;;;;;;15.50;10.60;;;-4.70;1.00;;;;;;4954959;29;20186;-68
2024/01/09 06:09:02;;;;;;;16.13;11.87;;;-4.70;1.00;;;;;;4956174;28;20273;-70
2024/01/09 06:11:28;;;;;;;14.37;10.20;;;-4.70;1.00;;;;;;4955887;28;20178;-68
2024/01/09 06:13:55;;;;;;;17.07;10.40;;;-4.60;1.00;;;;;;4955725;28;20182;-68
2024/01/09 06:16:21;;;;;;;19.38;11.40;;;-4.60;1.00;;;;;;4955727;28;20177;-69
2024/01/09 06:18:47;;;;;;;23.25;12.18;;;-4.60;1.00;;;;;;4956288;28;20210;-67
2024/01/09 06:21:13;;;;;;;18.97;11.97;;;-4.60;1.00;;;;;;4956175;28;20187;-69
2024/01/09 06:23:39;;;;;;;19.80;11.70;;;-4.60;1.00;;;;;;4954596;29;20698;-68
2024/01/09 06:26:04;;;;;;;18.03;11.80;;;-4.70;1.00;;;;;;4956015;28;20193;-69
2024/01/09 06:28:33;;;;;;;17.03;10.33;;;-4.60;1.00;;;;;;4955932;28;20493;-68
2024/01/09 06:30:59;;;;;;;24.58;10.55;;;-4.70;1.00;;;;;;4956655;28;20182;-68
2024/01/09 06:33:24;;;;;;;17.83;12.20;;;-4.80;1.00;;;;;;4956853;28;20240;-68
2024/01/09 06:35:50;;;;;;;18.83;10.47;;;-4.90;1.00;;;;;;4971352;28;20189;-68
2024/01/09 06:38:15;;;;;;;24.97;12.10;;;-4.90;1.00;;;;;;4958016;28;20225;-68
2024/01/09 06:40:41;;;;;;;17.40;10.37;;;-5.00;1.00;;;;;;4958267;28;20181;-68
2024/01/09 06:43:07;;;;;;;22.40;12.33;;;-5.00;1.00;;;;;;4973291;28;20208;-68
2024/01/09 06:45:34;;;;;;;25.23;10.85;;;-5.00;1.00;;;;;;4959094;28;20417;-68
2024/01/09 06:47:59;;;;;;;18.85;10.95;;;-5.00;1.00;;;;;;4958093;28;20190;-67
2024/01/09 06:50:25;;;;;;;24.37;10.50;;;-5.10;1.00;;;;;;4958141;28;20174;-69
2024/01/09 06:52:51;;;;;;;16.30;10.70;;;-5.00;1.00;;;;;;4957992;28;20240;-68
2024/01/09 06:55:17;;;;;;;23.10;12.30;;;-4.90;1.00;;;;;;4957811;28;20253;-68
2024/01/09 06:57:46;;;;;;;20.60;11.32;;;-4.80;1.00;;;;;;4958092;28;20436;-68
2024/01/09 07:00:13;;;;;;;18.65;11.23;;;-4.80;1.00;;;;;;4958225;28;20198;-69
2024/01/09 07:02:39;;;;;;;21.13;12.30;;;-4.70;1.00;;;;;;4972821;28;20189;-68
2024/01/09 07:05:05;;;;;;;19.73;12.03;;;-4.70;1.00;;;;;;4956479;28;20189;-68
2024/01/09 07:07:30;;;;;;;20.27;12.70;;;-4.60;1.00;;;;;;4956817;28;20201;-68
2024/01/09 07:09:56;;;;;;;17.40;10.93;;;-4.60;1.00;;;;;;4971714;28;20496;-68
2024/01/09 07:12:22;;;;;;;15.00;10.40;;;-4.60;1.00;;;;;;4957298;28;20245;-68
2024/01/09 07:14:47;;;;;;;21.60;12.97;;;-4.50;1.00;;;;;;4957025;28;20193;-68
2024/01/09 07:17:13;;;;;;;16.57;12.37;;;-4.50;1.00;;;;;;4980691;23;21045;-68
2024/01/09 07:19:38;;;;;;;22.57;11.60;;;-4.50;1.00;;;;;;4957001;28;20680;-70
2024/01/09 07:22:04;;;;;;;19.40;12.17;;;-4.50;1.00;;;;;;4974004;28;20177;-66
2024/01/09 07:24:30;;;;;;;18.43;9.73;;;-4.50;1.00;;;;;;4973470;28;20588;-68
2024/01/09 07:26:55;;;;;;;18.37;10.73;;;-4.40;1.00;;;;;;4973224;28;20545;-68
2024/01/09 07:29:21;;;;;;;16.67;12.47;;;-4.50;1.00;;;;;;4973618;28;20228;-68
2024/01/09 07:31:47;;;;;;;18.50;11.57;;;-4.50;1.00;;;;;;4973301;28;20197;-68
2024/01/09 07:34:13;;;;;;;17.17;11.57;;;-4.50;1.00;;;;;;4973589;28;20405;-69
2024/01/09 07:36:38;;;;;;;17.00;10.90;;;-4.50;1.00;;;;;;4973110;28;20405;-69
2024/01/09 07:39:05;;;;;;;19.23;10.40;;;-4.50;1.00;;;;;;4955779;28;20971;-69
2024/01/09 07:41:31;;;;;;;19.00;10.95;;;-4.50;1.00;;;;;;4973123;28;20608;-69
2024/01/09 07:43:57;;;;;;;20.13;12.73;;;-4.40;1.00;;;;;;4973256;28;20240;-69
2024/01/09 07:46:22;;;;;;;19.33;12.50;;;-4.40;1.00;;;;;;4955405;28;20305;-69
2024/01/09 07:48:48;;;;;;;15.10;9.60;;;-4.40;1.00;;;;;;4953381;28;20267;-69
2024/01/09 07:51:13;;;;;;;19.40;11.83;;;-4.50;1.00;;;;;;4968918;28;20706;-69
2024/01/09 07:53:39;;;;;;;18.60;11.17;;;-4.50;1.00;;;;;;4951446;28;20185;-69
2024/01/09 07:56:19;;;;;;;18.13;11.60;;;-4.50;1.00;;;;;;4969762;28;20200;-70
2024/01/09 07:58:45;;;;;;;17.48;11.75;;;-4.40;1.00;;;;;;4951808;28;20205;-68
2024/01/09 08:01:14;;;;;;;21.73;13.57;;;-4.40;1.00;;;;;;4969022;28;20227;-69
2024/01/09 08:03:40;;;;;;;20.33;11.35;;;-4.30;1.00;;;;;;4967155;28;20304;-69
2024/01/09 08:06:12;;;;;;;21.65;11.55;;;-4.30;1.00;;;;;;4966231;28;20189;-69
2024/01/09 08:08:38;;;;;;;24.23;12.48;;;-4.30;1.00;;;;;;4948882;28;20206;-70
2024/01/09 08:11:07;;;;;;;13.25;10.07;;;-4.30;1.00;;;;;;4933136;29;20192;-70
2024/01/09 08:13:33;;;;;;;23.00;12.85;;;-4.20;1.00;;;;;;4948906;29;20178;-69
2024/01/09 08:15:59;;;;;;;18.95;11.10;;;-4.20;1.00;;;;;;4958722;28;20762;-69
2024/01/09 08:18:24;;;;;;;20.30;12.53;;;-4.20;1.00;;;;;;4968006;28;20522;-70
2024/01/09 08:20:50;;;;;;;17.03;12.00;;;-4.20;1.00;;;;;;4968132;28;20201;-70
2024/01/09 08:23:16;;;;;;;17.70;13.27;;;-4.20;1.00;;;;;;4968942;28;20627;-67
2024/01/09 08:25:42;;;;;;;16.88;11.43;;;-4.20;1.00;;;;;;4968261;28;20181;-69
2024/01/09 08:28:08;;;;;;;21.60;12.60;;;-4.10;1.00;;;;;;4968004;28;20542;-68
2024/01/09 08:30:34;;;;;;;20.38;11.30;;;-4.20;1.00;;;;;;4968791;28;20417;-69
2024/01/09 08:33:00;;;;;;;18.57;12.50;;;-4.20;1.00;;;;;;4967521;28;20196;-69
2024/01/09 08:35:25;;;;;;;17.47;11.50;;;-4.20;1.00;;;;;;4950696;28;20200;-72
2024/01/09 08:37:51;;;;;;;17.00;10.90;;;-4.10;1.00;;;;;;4969883;28;20197;-73
2024/01/09 08:40:16;;;;;;;17.23;11.40;;;-4.10;1.00;;;;;;4972419;28;20581;-70
2024/01/09 08:42:42;;;;;;;22.83;12.37;;;-4.00;1.00;;;;;;4955066;28;20205;-68
2024/01/09 08:45:08;;;;;;;24.10;13.37;;;-3.90;1.00;;;;;;4951872;29;20188;-68
2024/01/09 08:47:34;;;;;;;19.13;10.73;;;-3.70;1.00;;;;;;4935097;29;20241;-70
2024/01/09 08:50:04;;;;;;;22.38;12.85;;;-3.60;1.00;;;;;;4961673;28;20191;-69
2024/01/09 08:52:30;;;;;;;17.00;11.57;;;-3.70;1.00;;;;;;4971632;28;20664;-69
2024/01/09 08:54:55;;;;;;;15.63;11.43;;;-3.80;1.00;;;;;;4970842;28;20602;-69
2024/01/09 08:57:21;;;;;;;16.83;10.93;;;-3.90;1.00;;;;;;4972122;28;20224;-69
2024/01/09 08:59:48;;;;;;;21.13;12.80;;;-3.80;1.00;;;;;;4973754;28;20241;-71
2024/01/09 09:02:13;;;;;;;19.02;11.38;;;-3.70;1.00;;;;;;4975655;28;20268;-70
2024/01/09 09:04:39;;;;;;;17.07;12.60;;;-3.60;1.00;;;;;;4975946;28;20209;-76
2024/01/09 09:07:05;;;;;;;17.50;11.43;;;-3.50;1.00;;;;;;4952458;29;20440;-70
2024/01/09 09:09:33;;;;;;;17.83;10.73;;;-3.40;1.00;;;;;;4956979;29;20176;-68
2024/01/09 09:11:59;;;;;;;18.70;12.25;;;-3.50;1.00;;;;;;4956425;29;20793;-70
2024/01/09 09:14:25;;;;;;;18.40;12.60;;;-3.60;1.00;;;;;;4956610;29;20209;-69
2024/01/09 09:16:51;;;;;;;14.97;10.43;;;-3.50;1.00;;;;;;4956341;29;20260;-69
2024/01/09 09:19:17;;;;;;;15.80;11.65;;;-3.90;1.00;;;;;;4956266;29;20305;-69
2024/01/09 09:21:43;;;;;;;18.75;11.52;;;-3.90;1.00;;;;;;4956193;29;20184;-70
2024/01/09 09:24:09;;;;;;;17.80;10.77;;;-3.80;1.00;;;;;;4939191;29;20248;-69
2024/01/09 09:26:35;;;;;;;18.00;12.18;;;-3.60;1.00;;;;;;4956276;29;20524;-72
2024/01/09 09:29:01;;;;;;;17.38;11.40;;;-3.70;1.00;;;;;;4956003;29;20201;-69
2024/01/09 09:31:27;;;;;;;14.93;11.50;;;-3.90;1.00;;;;;;4956031;29;20183;-68
2024/01/09 09:33:53;;;;;;;25.30;11.60;;;-3.80;1.00;;;;;;4956045;29;20174;-69
2024/01/09 09:36:19;;;;;;;21.10;10.30;;;-3.80;1.00;;;;;;4956079;29;20492;-69
2024/01/09 09:38:44;;;;;;;19.50;12.40;;;-3.80;1.00;;;;;;4954447;28;20197;-67
2024/01/09 09:41:15;;;;;;;18.97;12.57;;;-3.90;1.00;;;;;;4955901;29;20280;-68
2024/01/09 09:43:48;;;;;;;22.33;13.73;;;-4.00;1.00;;;;;;4955741;29;20268;-68
2024/01/09 09:46:25;;;;;;;21.45;11.43;;;-4.10;1.00;;;;;;4955862;29;20206;-69
2024/01/09 09:48:53;;;;;;;27.75;17.30;;;-4.10;1.00;;;;;;4938046;29;20298;-68
2024/01/09 09:51:20;;;;;;;19.52;11.30;;;-4.10;1.00;;;;;;4955890;28;20221;-68
2024/01/09 09:53:46;;;;;;;17.05;11.55;;;-4.00;1.00;;;;;;4955470;29;20268;-68
2024/01/09 09:56:13;;;;;;;24.52;13.32;;;-4.00;1.00;;;;;;4938260;29;20638;-69
2024/01/09 09:58:40;;;;;;;25.65;13.65;;;-4.10;1.00;;;;;;4955523;29;20221;-67
2024/01/09 10:01:10;;;;;;;21.67;11.73;;;-4.00;1.00;;;;;;4956154;29;20183;-67
2024/01/09 10:03:43;;;;;;;16.13;11.10;;;-4.00;1.00;;;;;;4955419;29;20206;-68
2024/01/09 10:06:11;;;;;;;17.90;11.20;;;-3.90;1.00;;;;;;4955438;29;20193;-68
2024/01/09 10:08:38;;;;;;;20.65;12.00;;;-3.80;1.00;;;;;;4955174;29;20289;-68
2024/01/09 10:11:04;;;;;;;20.60;13.02;;;-3.80;1.00;;;;;;4955204;29;20183;-69
2024/01/09 10:13:30;;;;;;;20.77;12.90;;;-3.80;1.00;;;;;;4954837;29;20278;-68
2024/01/09 10:16:00;;;;;;;17.97;10.60;;;-3.70;1.00;;;;;;4953827;28;20276;-68
2024/01/09 10:18:30;;;;;;;19.60;12.70;;;-3.60;1.00;;;;;;4954940;29;20252;-68
2024/01/09 10:20:57;;;;;;;19.40;13.20;;;-3.60;1.00;;;;;;4955100;29;20189;-68
2024/01/09 10:23:23;;;;;;;17.95;11.77;;;-3.50;1.00;;;;;;4954841;29;20203;-68
2024/01/09 10:25:50;;;;;;;20.90;11.88;;;-3.50;1.00;;;;;;4955109;29;20173;-68
2024/01/09 10:28:17;;;;;;;19.88;13.18;;;-3.40;1.00;;;;;;4954763;29;20282;-69
2024/01/09 10:30:43;;;;;;;18.55;12.95;;;-3.40;1.00;;;;;;4955256;29;20176;-67
2024/01/09 10:33:13;;;;;;;16.65;11.95;;;-3.40;1.00;;;;;;4954602;29;20184;-68
2024/01/09 10:35:39;;;;;;;17.75;11.48;;;-3.20;1.00;;;;;;4954852;29;20174;-70
2024/01/09 10:38:04;;;;;;;18.10;11.93;;;-3.20;1.00;;;;;;4954978;29;20203;-69
2024/01/09 10:40:30;;;;;;;22.50;12.77;;;-3.10;1.00;;;;;;4954918;29;20519;-69
2024/01/09 10:42:56;;;;;;;20.40;12.73;;;-3.00;1.00;;;;;;4954615;29;20183;-69
2024/01/09 10:45:26;;;;;;;15.52;12.55;;;-3.00;1.00;;;;;;4954779;29;20179;-68
2024/01/09 10:47:53;;;;;;;20.42;11.45;;;-3.00;1.00;;;;;;4954723;29;20287;-68
2024/01/09 10:50:20;;;;;;;22.60;13.50;;;-2.90;1.00;;;;;;4937551;29;20185;-69
2024/01/09 10:52:48;;;;;;;20.67;13.82;;;-2.80;1.00;;;;;;4954741;29;20178;-68
2024/01/09 10:55:15;;;;;;;16.95;13.23;;;-2.80;1.00;;;;;;4954642;29;20625;-69
2024/01/09 10:57:42;;;;;;;20.60;11.68;;;-2.60;1.00;;;;;;4954568;29;20204;-69
2024/01/09 11:00:11;;;;;;;19.15;12.88;;;-2.60;1.00;;;;;;4936692;29;20643;-68
2024/01/09 11:02:37;;;;;;;16.15;11.43;;;-2.50;1.00;;;;;;4954286;28;20181;-69
2024/01/09 11:05:07;;;;;;;21.77;11.60;;;-2.40;1.00;;;;;;4954417;29;20275;-68
2024/01/09 11:07:33;;;;;;;20.65;12.82;;;-2.30;1.00;;;;;;4954481;29;20243;-68
2024/01/09 11:10:00;;;;;;;19.30;13.57;;;-2.10;1.00;;;;;;4954663;29;20200;-68
2024/01/09 11:12:37;;;;;;;14.48;10.38;;;-2.00;1.00;;;;;;4939697;28;20181;-69
2024/01/09 11:15:15;;;;;;;20.77;12.65;;;-2.00;1.00;;;;;;4963526;28;20642;-68
2024/01/09 11:17:45;;;;;;;18.80;13.20;;;-1.90;1.00;;;;;;4973352;28;20219;-68
2024/01/09 11:20:12;;;;;;;20.27;11.70;;;-1.80;1.00;;;;;;4973458;28;20185;-68
2024/01/09 11:22:37;;;;;;;23.27;11.73;;;-1.70;1.00;;;;;;4973615;28;20779;-67
2024/01/09 11:25:05;;;;;;;17.90;12.30;;;-1.70;1.00;;;;;;4973461;28;20361;-68
2024/01/09 11:27:42;;;;;;;18.17;13.00;;;-1.80;1.00;;;;;;4973377;28;20189;-68
2024/01/09 11:30:10;;;;;;;19.23;12.35;;;-1.80;1.00;;;;;;4973027;28;20541;-68
2024/01/09 11:32:38;;;;;;;18.80;11.10;;;-1.70;1.00;;;;;;4953843;29;20177;-68
2024/01/09 11:35:17;;;;;;;17.23;12.30;;;-1.60;1.00;;;;;;4953837;29;20189;-68
2024/01/09 11:37:46;;;;;;;16.55;10.73;;;-1.50;1.00;;;;;;4954364;29;20711;-71
2024/01/09 11:40:12;;;;;;;21.02;10.65;;;-1.40;1.00;;;;;;4936839;29;20189;-70
2024/01/09 11:42:45;;;;;;;18.58;12.45;;;-1.30;1.00;;;;;;4957052;29;20170;-68
2024/01/09 11:45:12;;;;;;;14.80;11.98;;;-1.30;1.00;;;;;;4958681;29;20280;-68
2024/01/09 11:47:42;;;;;;;18.42;12.95;;;-1.10;1.00;;;;;;4958125;29;20677;-67
2024/01/09 11:50:11;;;;;;;15.98;10.25;;;-1.10;1.00;;;;;;4939863;29;20181;-66
2024/01/09 11:52:41;;;;;;;16.95;12.90;;;-1.10;1.00;;;;;;4967190;28;20544;-67
2024/01/09 11:55:08;;;;;;;20.08;12.02;;;-1.00;1.00;;;;;;4975411;28;20189;-66
2024/01/09 11:57:34;;;;;;;16.25;10.50;;;-1.10;1.00;;;;;;4976391;28;20200;-66
2024/01/09 12:00:04;;;;;;;19.33;12.02;;;-1.10;1.00;;;;;;4975960;28;20181;-66
2024/01/09 12:02:30;;;;;;;19.67;11.52;;;-1.10;1.00;;;;;;4976040;28;20181;-66
2024/01/09 12:04:57;;;;;;;14.65;10.73;;;-1.10;1.00;;;;;;4976758;28;20233;-66
2024/01/09 12:07:23;;;;;;;19.52;12.75;;;-1.00;1.00;;;;;;4969769;28;20262;-66
2024/01/09 12:09:49;;;;;;;19.42;11.75;;;-0.80;1.00;;;;;;4957065;29;20264;-66
2024/01/09 12:12:25;;;;;;;18.92;10.38;;;-0.70;1.00;;;;;;4955938;28;20170;-66
2024/01/09 12:14:52;;;;;;;17.63;11.52;;;-0.50;1.00;;;;;;4956110;29;20189;-66
2024/01/09 12:17:20;;;;;;;18.80;13.57;;;-0.30;1.00;;;;;;4955319;29;20178;-66
2024/01/09 12:19:46;;;;;;;14.57;11.10;;;-0.20;1.00;;;;;;4973602;28;20192;-66
2024/01/09 12:22:12;;;;;;;16.30;11.83;;;-0.10;1.00;;;;;;4954214;29;20276;-66
2024/01/09 12:24:38;;;;;;;20.20;12.57;;;-0.40;1.00;;;;;;4955831;29;20744;-67
2024/01/09 12:27:04;;;;;;;17.40;11.30;;;-0.50;1.00;;;;;;4964061;28;20193;-67
2024/01/09 12:29:31;;;;;;;22.23;12.90;;;-0.40;1.00;;;;;;4957594;28;20173;-67
2024/01/09 12:31:56;;;;;;;20.95;11.13;;;-0.50;1.00;;;;;;4976198;28;20973;-66
2024/01/09 12:34:22;;;;;;;13.90;10.40;;;-0.40;1.00;;;;;;4959148;28;20280;-67
2024/01/09 12:36:48;;;;;;;14.30;10.83;;;-0.30;1.00;;;;;;4976431;28;20232;-66
2024/01/09 12:39:19;;;;;;;17.02;10.23;;;-0.40;1.00;;;;;;4978059;28;20204;-66
2024/01/09 12:41:44;;;;;;;18.25;10.73;;;-0.30;1.00;;;;;;4978526;28;20177;-67
2024/01/09 12:44:14;;;;;;;14.87;8.73;;;-0.40;1.00;;;;;;4957492;29;20565;-66
2024/01/09 12:46:44;;;;;;;15.00;10.85;;;-0.30;1.00;;;;;;4959984;29;20449;-67
2024/01/09 12:49:10;;;;;;;17.67;11.15;;;-0.30;1.00;;;;;;4959881;29;20272;-67